Time;durP1;ratioP1;P1;durP2;ratioP2;P2;SDS_P1;SDS_P2;PMS_P1;PMS_P2;Temp;Humidity;BMP_temperature;BMP_pressure;BME280_temperature;BME280_humidity;BME280_pressure;Samples;Min_cycle;Max_cycle;Signal;HPM_P1;HPM_P2
2023/07/18 00:00:13;;;;;;;;;;;;;;;-146.32;100.00;63746.28;4097815;28;20865;-69
2023/07/18 00:02:15;;;;;;;;;;;;;;;-146.32;100.00;63746.28;4096741;28;20456;-69
2023/07/18 00:04:17;;;;;;;;;;;;;;;-146.32;100.00;63746.28;4094719;28;20009;-69
2023/07/18 00:06:19;;;;;;;;;;;;;;;-146.32;100.00;63746.28;4096715;29;20022;-69
2023/07/18 00:08:22;;;;;;;;;;;;;;;-146.32;100.00;63746.28;4095565;28;20013;-69
2023/07/18 00:10:23;;;;;;;;;;;;;;;-146.32;100.00;63746.28;4112831;28;20436;-69
2023/07/18 00:12:25;;;;;;;;;;;;;;;-146.32;100.00;63746.28;4096240;28;19970;-69
2023/07/18 00:14:31;;;;;;;;;;;;;;;-146.32;100.00;63746.28;4096636;28;20029;-69
2023/07/18 00:16:33;;;;;;;;;;;;;;;-146.32;100.00;63746.28;4097245;28;20036;-69
2023/07/18 00:18:35;;;;;;;;;;;;;;;-146.32;100.00;63746.28;4093943;28;20013;-68
2023/07/18 00:20:38;;;;;;;;;;;;;;;-146.32;100.00;63746.28;4098105;28;20387;-69
2023/07/18 00:22:41;;;;;;;;;;;;;;;-146.32;100.00;63746.28;4097858;28;20005;-69
2023/07/18 00:24:44;;;;;;;;;;;;;;;-146.32;100.00;63746.28;4089670;28;20012;-68
2023/07/18 00:26:46;;;;;;;;;;;;;;;-146.32;100.00;63746.28;4093863;28;20448;-69
2023/07/18 00:28:53;;;;;;;;;;;;;;;-146.32;100.00;63746.28;4095260;29;20025;-69
2023/07/18 00:30:55;;;;;;;;;;;;;;;-146.32;100.00;63746.28;4096065;28;20026;-68
2023/07/18 00:32:56;;;;;;;;;;;;;;;-146.32;100.00;63746.28;4094491;28;20005;-69
2023/07/18 00:35:01;;;;;;;;;;;;;;;-146.32;100.00;63746.28;4094507;28;19923;-69
2023/07/18 00:37:05;;;;;;;;;;;;;;;-146.32;100.00;63746.28;4096077;29;19934;-68
2023/07/18 00:39:10;;;;;;;;;;;;;;;-146.32;100.00;63746.28;4094859;28;20373;-69
2023/07/18 00:41:14;;;;;;;;;;;;;;;-146.32;100.00;63746.28;4094788;28;20020;-68
2023/07/18 00:43:16;;;;;;;;;;;;;;;-146.32;100.00;63746.28;4095604;28;20360;-69
2023/07/18 00:45:19;;;;;;;;;;;;;;;-146.32;100.00;63746.28;4093148;28;20013;-68
2023/07/18 00:47:22;;;;;;;;;;;;;;;-146.32;100.00;63746.28;4095844;28;20017;-69
2023/07/18 00:49:24;;;;;;;;;;;;;;;-146.32;100.00;63746.28;4094596;28;20369;-69
2023/07/18 00:51:25;;;;;;;;;;;;;;;-146.32;100.00;63746.28;4088693;28;20037;-69
2023/07/18 00:53:27;;;;;;;;;;;;;;;-146.32;100.00;63746.28;4095627;28;20444;-69
2023/07/18 00:55:38;;;;;;;;;;;;;;;-146.32;100.00;63746.28;4095296;28;20020;-69
2023/07/18 00:57:41;;;;;;;;;;;;;;;-146.32;100.00;63746.28;4095846;28;19922;-69
2023/07/18 00:59:43;;;;;;;;;;;;;;;-146.32;100.00;63746.28;4094269;28;20001;-69
2023/07/18 01:01:45;;;;;;;;;;;;;;;-146.32;100.00;63746.28;4092648;28;20026;-69
2023/07/18 01:03:47;;;;;;;;;;;;;;;-146.32;100.00;63746.28;4095988;28;20029;-69
2023/07/18 01:05:49;;;;;;;;;;;;;;;-146.32;100.00;63746.28;4089765;28;20020;-68
2023/07/18 01:07:51;;;;;;;;;;;;;;;-146.32;100.00;63746.28;4094514;28;20005;-69
2023/07/18 01:09:53;;;;;;;;;;;;;;;-146.32;100.00;63746.28;4091055;28;20021;-69
2023/07/18 01:11:55;;;;;;;;;;;;;;;-146.32;100.00;63746.28;4096007;28;20012;-69
2023/07/18 01:13:58;;;;;;;;;;;;;;;-146.32;100.00;63746.28;4110121;28;20017;-69
2023/07/18 01:16:00;;;;;;;;;;;;;;;-146.32;100.00;63746.28;4109788;28;20000;-68
2023/07/18 01:18:03;;;;;;;;;;;;;;;-146.32;100.00;63746.28;4094601;28;19958;-68
2023/07/18 01:20:05;;;;;;;;;;;;;;;-146.32;100.00;63746.28;4093597;28;20009;-68
2023/07/18 01:22:09;;;;;;;;;;;;;;;-146.32;100.00;63746.28;4094622;28;20022;-68
2023/07/18 01:24:11;;;;;;;;;;;;;;;-146.32;100.00;63746.28;4087170;28;20033;-68
2023/07/18 01:26:13;;;;;;;;;;;;;;;-146.32;100.00;63746.28;4091266;28;20532;-68
2023/07/18 01:28:15;;;;;;;;;;;;;;;-146.32;100.00;63746.28;4095236;28;20013;-68
2023/07/18 01:30:18;;;;;;;;;;;;;;;-146.32;100.00;63746.28;4088931;28;20125;-68
2023/07/18 01:32:19;;;;;;;;;;;;;;;-146.32;100.00;63746.28;4102987;28;20368;-68
2023/07/18 01:34:22;;;;;;;;;;;;;;;-146.32;100.00;63746.28;4096246;28;20016;-68
2023/07/18 01:36:24;;;;;;;;;;;;;;;-146.32;100.00;63746.28;4095311;28;20441;-69
2023/07/18 01:38:29;;;;;;;;;;;;;;;-146.32;100.00;63746.28;4094122;28;20017;-69
2023/07/18 01:40:31;;;;;;;;;;;;;;;-146.32;100.00;63746.28;4095209;28;20024;-69
2023/07/18 01:42:32;;;;;;;;;;;;;;;-146.32;100.00;63746.28;4094822;28;20009;-69
2023/07/18 01:44:34;;;;;;;;;;;;;;;-146.32;100.00;63746.28;4110180;28;20020;-67
2023/07/18 01:46:37;;;;;;;;;;;;;;;-146.32;100.00;63746.28;4095050;28;20013;-68
2023/07/18 01:48:39;;;;;;;;;;;;;;;-146.32;100.00;63746.28;4092317;28;20034;-67
2023/07/18 01:50:43;;;;;;;;;;;;;;;-146.32;100.00;63746.28;4110047;28;20012;-67
2023/07/18 01:52:46;;;;;;;;;;;;;;;-146.32;100.00;63746.28;4096586;28;20005;-68
2023/07/18 01:54:49;;;;;;;;;;;;;;;-146.32;100.00;63746.28;4095150;28;20013;-71
2023/07/18 01:56:53;;;;;;;;;;;;;;;-146.32;100.00;63746.28;4094494;29;20550;-67
2023/07/18 01:58:55;;;;;;;;;;;;;;;-146.32;100.00;63746.28;4094485;28;19926;-69
2023/07/18 02:00:56;;;;;;;;;;;;;;;-146.32;100.00;63746.28;4093562;28;20025;-67
2023/07/18 02:02:59;;;;;;;;;;;;;;;-146.32;100.00;63746.28;4112754;28;20408;-68
2023/07/18 02:05:01;;;;;;;;;;;;;;;-146.32;100.00;63746.28;4097500;28;20371;-64
2023/07/18 02:07:03;;;;;;;;;;;;;;;-146.32;100.00;63746.28;4095899;28;20014;-64
2023/07/18 02:09:09;;;;;;;;;;;;;;;-146.32;100.00;63746.28;4096812;28;20029;-63
2023/07/18 02:11:13;;;;;;;;;;;;;;;-146.32;100.00;63746.28;4097984;28;20064;-63
2023/07/18 02:13:17;;;;;;;;;;;;;;;-146.32;100.00;63746.28;4095029;28;20016;-63
2023/07/18 02:15:19;;;;;;;;;;;;;;;-146.32;100.00;63746.28;4096778;28;20021;-64
2023/07/18 02:17:21;;;;;;;;;;;;;;;-146.32;100.00;63746.28;4096594;28;20017;-63
2023/07/18 02:19:23;;;;;;;;;;;;;;;-146.32;100.00;63746.28;4091125;28;20021;-65
2023/07/18 02:21:25;;;;;;;;;;;;;;;-146.32;100.00;63746.28;4093765;28;20005;-65
2023/07/18 02:23:27;;;;;;;;;;;;;;;-146.32;100.00;63746.28;4105353;28;20012;-64
2023/07/18 02:25:29;;;;;;;;;;;;;;;-146.32;100.00;63746.28;4097587;28;20013;-62
2023/07/18 02:27:34;;;;;;;;;;;;;;;-146.32;100.00;63746.28;4096272;28;20029;-62
2023/07/18 02:29:36;;;;;;;;;;;;;;;-146.32;100.00;63746.28;4099141;28;20341;-63
2023/07/18 02:31:38;;;;;;;;;;;;;;;-146.32;100.00;63746.28;4096062;28;20009;-64
2023/07/18 02:33:40;;;;;;;;;;;;;;;-146.32;100.00;63746.28;4102120;28;20001;-64
2023/07/18 02:35:48;;;;;;;;;;;;;;;-146.32;100.00;63746.28;4096612;28;20018;-63
2023/07/18 02:37:50;;;;;;;;;;;;;;;-146.32;100.00;63746.28;4096527;28;20049;-64
2023/07/18 02:39:52;;;;;;;;;;;;;;;-146.32;100.00;63746.28;4099090;28;20496;-63
2023/07/18 02:41:53;;;;;;;;;;;;;;;-146.32;100.00;63746.28;4097987;28;20867;-63
2023/07/18 02:43:57;;;;;;;;;;;;;;;-146.32;100.00;63746.28;4097276;28;20021;-65
2023/07/18 02:45:59;;;;;;;;;;;;;;;-146.32;100.00;63746.28;4099047;28;20452;-63
2023/07/18 02:48:01;;;;;;;;;;;;;;;-146.32;100.00;63746.28;4096735;28;20461;-64
2023/07/18 02:50:02;;;;;;;;;;;;;;;-146.32;100.00;63746.28;4098927;28;20825;-63
2023/07/18 02:52:04;;;;;;;;;;;;;;;-146.32;100.00;63746.28;4098981;28;20013;-63
2023/07/18 02:54:06;;;;;;;;;;;;;;;-146.32;100.00;63746.28;4097588;28;20021;-61
2023/07/18 02:56:07;;;;;;;;;;;;;;;-146.32;100.00;63746.28;4098377;28;20009;-63
2023/07/18 02:58:09;;;;;;;;;;;;;;;-146.32;100.00;63746.28;4097750;28;20060;-62
2023/07/18 03:00:19;;;;;;;;;;;;;;;-146.32;100.00;63746.28;4099289;28;20018;-64
2023/07/18 03:02:21;;;;;;;;;;;;;;;-146.32;100.00;63746.28;4098401;28;20233;-63
2023/07/18 03:04:26;;;;;;;;;;;;;;;-146.32;100.00;63746.28;4098644;28;20130;-64
2023/07/18 03:06:30;;;;;;;;;;;;;;;-146.32;100.00;63746.28;4097253;29;20009;-60
2023/07/18 03:08:32;;;;;;;;;;;;;;;-146.32;100.00;63746.28;4112345;28;20025;-60
2023/07/18 03:10:36;;;;;;;;;;;;;;;-146.32;100.00;63746.28;4097744;28;20385;-60
2023/07/18 03:12:40;;;;;;;;;;;;;;;-146.32;100.00;63746.28;4098080;28;20333;-63
2023/07/18 03:14:43;;;;;;;;;;;;;;;-146.32;100.00;63746.28;4113755;28;20029;-62
2023/07/18 03:16:47;;;;;;;;;;;;;;;-146.32;100.00;63746.28;4096967;28;20386;-61
2023/07/18 03:18:49;;;;;;;;;;;;;;;-146.32;100.00;63746.28;4111693;28;20013;-62
2023/07/18 03:20:51;;;;;;;;;;;;;;;-146.32;100.00;63746.28;4098154;28;20013;-64
2023/07/18 03:22:55;;;;;;;;;;;;;;;-146.32;100.00;63746.28;4097690;28;20032;-64
2023/07/18 03:24:57;;;;;;;;;;;;;;;-146.32;100.00;63746.28;4105289;28;20020;-64
2023/07/18 03:26:59;;;;;;;;;;;;;;;-146.32;100.00;63746.28;4098145;28;20440;-65
2023/07/18 03:29:01;;;;;;;;;;;;;;;-146.32;100.00;63746.28;4096454;29;20021;-63
2023/07/18 03:31:03;;;;;;;;;;;;;;;-146.32;100.00;63746.28;4097422;28;20014;-63
2023/07/18 03:33:06;;;;;;;;;;;;;;;-146.32;100.00;63746.28;4112673;28;20288;-64
2023/07/18 03:35:09;;;;;;;;;;;;;;;-146.32;100.00;63746.28;4097079;28;20081;-64
2023/07/18 03:37:11;;;;;;;;;;;;;;;-146.32;100.00;63746.28;4098107;28;20447;-64
2023/07/18 03:39:13;;;;;;;;;;;;;;;-146.32;100.00;63746.28;4096633;28;20502;-64
2023/07/18 03:41:15;;;;;;;;;;;;;;;-146.32;100.00;63746.28;4097986;28;20025;-63
2023/07/18 03:43:17;;;;;;;;;;;;;;;-146.32;100.00;63746.28;4096638;28;20009;-63
2023/07/18 03:45:20;;;;;;;;;;;;;;;-146.32;100.00;63746.28;4097462;28;20021;-63
2023/07/18 03:47:21;;;;;;;;;;;;;;;-146.32;100.00;63746.28;4096554;28;20009;-64
2023/07/18 03:49:24;;;;;;;;;;;;;;;-146.32;100.00;63746.28;4097187;28;19958;-61
2023/07/18 03:51:26;;;;;;;;;;;;;;;-146.32;100.00;63746.28;4097878;28;20009;-63
2023/07/18 03:53:28;;;;;;;;;;;;;;;-146.32;100.00;63746.28;4097336;28;20017;-62
2023/07/18 03:55:30;;;;;;;;;;;;;;;-146.32;100.00;63746.28;4096901;28;20028;-62
2023/07/18 03:57:32;;;;;;;;;;;;;;;-146.32;100.00;63746.28;4097542;28;20005;-64
2023/07/18 03:59:34;;;;;;;;;;;;;;;-146.32;100.00;63746.28;4096853;29;20017;-63
2023/07/18 04:01:36;;;;;;;;;;;;;;;-146.32;100.00;63746.28;4097499;28;20021;-63
2023/07/18 04:03:38;;;;;;;;;;;;;;;-146.32;100.00;63746.28;4096582;28;20013;-64
2023/07/18 04:05:42;;;;;;;;;;;;;;;-146.32;100.00;63746.28;4097226;28;19965;-62
2023/07/18 04:07:44;;;;;;;;;;;;;;;-146.32;100.00;63746.28;4096831;28;20005;-63
2023/07/18 04:09:46;;;;;;;;;;;;;;;-146.32;100.00;63746.28;4097869;28;20013;-60
2023/07/18 04:11:48;;;;;;;;;;;;;;;-146.32;100.00;63746.28;4096656;28;20022;-63
2023/07/18 04:13:50;;;;;;;;;;;;;;;-146.32;100.00;63746.28;4096871;28;20005;-63
2023/07/18 04:15:53;;;;;;;;;;;;;;;-146.32;100.00;63746.28;4091773;28;20026;-61
2023/07/18 04:17:55;;;;;;;;;;;;;;;-146.32;100.00;63746.28;4095888;28;20017;-63
2023/07/18 04:19:58;;;;;;;;;;;;;;;-146.32;100.00;63746.28;4097369;28;20017;-62
2023/07/18 04:22:02;;;;;;;;;;;;;;;-146.32;100.00;63746.28;4097715;28;20019;-63
2023/07/18 04:24:04;;;;;;;;;;;;;;;-146.32;100.00;63746.28;4095717;28;20016;-64
2023/07/18 04:26:09;;;;;;;;;;;;;;;-146.32;100.00;63746.28;4095878;28;20021;-63
2023/07/18 04:28:10;;;;;;;;;;;;;;;-146.32;100.00;63746.28;4097339;28;20017;-61
2023/07/18 04:30:13;;;;;;;;;;;;;;;-146.32;100.00;63746.28;4097001;28;20021;-62
2023/07/18 04:32:14;;;;;;;;;;;;;;;-146.32;100.00;63746.28;4096773;28;20009;-63
2023/07/18 04:34:16;;;;;;;;;;;;;;;-146.32;100.00;63746.28;4095822;28;20022;-62
2023/07/18 04:36:18;;;;;;;;;;;;;;;-146.32;100.00;63746.28;4098118;28;20049;-63
2023/07/18 04:38:22;;;;;;;;;;;;;;;-146.32;100.00;63746.28;4096560;28;20013;-63
2023/07/18 04:40:23;;;;;;;;;;;;;;;-146.32;100.00;63746.28;4096945;28;20333;-63
2023/07/18 04:42:25;;;;;;;;;;;;;;;-146.32;100.00;63746.28;4096778;28;20368;-64
2023/07/18 04:44:30;;;;;;;;;;;;;;;-146.32;100.00;63746.28;4097829;28;20369;-64
2023/07/18 04:46:32;;;;;;;;;;;;;;;-146.32;100.00;63746.28;4097677;28;20020;-63
2023/07/18 04:48:34;;;;;;;;;;;;;;;-146.32;100.00;63746.28;4095664;28;20009;-63
2023/07/18 04:50:37;;;;;;;;;;;;;;;-146.32;100.00;63746.28;4096444;28;20013;-64
2023/07/18 04:52:38;;;;;;;;;;;;;;;-146.32;100.00;63746.28;4096455;28;19997;-63
2023/07/18 04:54:42;;;;;;;;;;;;;;;-146.32;100.00;63746.28;4098103;28;20013;-62
2023/07/18 04:56:44;;;;;;;;;;;;;;;-146.32;100.00;63746.28;4096743;28;20367;-64
2023/07/18 04:58:46;;;;;;;;;;;;;;;-146.32;100.00;63746.28;4095902;28;20587;-64
2023/07/18 05:00:48;;;;;;;;;;;;;;;-146.32;100.00;63746.28;4097060;28;20448;-64
2023/07/18 05:02:49;;;;;;;;;;;;;;;-146.32;100.00;63746.28;4096614;28;20444;-62
2023/07/18 05:04:51;;;;;;;;;;;;;;;-146.32;100.00;63746.28;4096990;28;19923;-63
2023/07/18 05:06:53;;;;;;;;;;;;;;;-146.32;100.00;63746.28;4096293;28;20017;-62
2023/07/18 05:08:55;;;;;;;;;;;;;;;-146.32;100.00;63746.28;4096776;28;20023;-64
2023/07/18 05:11:01;;;;;;;;;;;;;;;-146.32;100.00;63746.28;4097287;28;20020;-63
2023/07/18 05:13:02;;;;;;;;;;;;;;;-146.32;100.00;63746.28;4095634;28;20012;-63
2023/07/18 05:15:04;;;;;;;;;;;;;;;-146.32;100.00;63746.28;4096370;28;19930;-63
2023/07/18 05:17:07;;;;;;;;;;;;;;;-146.32;100.00;63746.28;4096554;28;20551;-63
2023/07/18 05:19:09;;;;;;;;;;;;;;;-146.32;100.00;63746.28;4095436;28;20024;-63
2023/07/18 05:21:11;;;;;;;;;;;;;;;-146.32;100.00;63746.28;4096184;28;20009;-62
2023/07/18 05:23:13;;;;;;;;;;;;;;;-146.32;100.00;63746.28;4094001;28;20018;-63
2023/07/18 05:25:17;;;;;;;;;;;;;;;-146.32;100.00;63746.28;4096905;28;20013;-63
2023/07/18 05:27:21;;;;;;;;;;;;;;;-146.32;100.00;63746.28;4097266;28;20426;-64
2023/07/18 05:29:23;;;;;;;;;;;;;;;-146.32;100.00;63746.28;4095509;28;20005;-61
2023/07/18 05:31:25;;;;;;;;;;;;;;;-146.32;100.00;63746.28;4096212;28;20468;-61
2023/07/18 05:33:27;;;;;;;;;;;;;;;-146.32;100.00;63746.28;4095950;28;20005;-64
2023/07/18 05:35:29;;;;;;;;;;;;;;;-146.32;100.00;63746.28;4096004;28;20009;-63
2023/07/18 05:37:31;;;;;;;;;;;;;;;-146.32;100.00;63746.28;4096045;28;20009;-63
2023/07/18 05:39:33;;;;;;;;;;;;;;;-146.32;100.00;63746.28;4099764;28;20028;-62
2023/07/18 05:41:35;;;;;;;;;;;;;;;-146.32;100.00;63746.28;4100308;28;20018;-62
2023/07/18 05:43:39;;;;;;;;;;;;;;;-146.32;100.00;63746.28;4099109;28;20008;-63
2023/07/18 05:45:41;;;;;;;;;;;;;;;-146.32;100.00;63746.28;4098914;28;19988;-63
2023/07/18 05:47:43;;;;;;;;;;;;;;;-146.32;100.00;63746.28;4099316;28;19929;-63
2023/07/18 05:49:45;;;;;;;;;;;;;;;-146.32;100.00;63746.28;4099266;28;20469;-63
2023/07/18 05:51:47;;;;;;;;;;;;;;;-146.32;100.00;63746.28;4099933;28;20017;-63
2023/07/18 05:53:49;;;;;;;;;;;;;;;-146.32;100.00;63746.28;4098962;28;20041;-64
2023/07/18 05:55:52;;;;;;;;;;;;;;;-146.32;100.00;63746.28;4099312;28;20012;-62
2023/07/18 05:57:54;;;;;;;;;;;;;;;-146.32;100.00;63746.28;4099196;28;20017;-63
2023/07/18 05:59:57;;;;;;;;;;;;;;;-146.32;100.00;63746.28;4099309;28;20022;-63
2023/07/18 06:02:02;;;;;;;;;;;;;;;-146.32;100.00;63746.28;4099347;28;20013;-61
2023/07/18 06:04:04;;;;;;;;;;;;;;;-146.32;100.00;63746.28;4099363;28;20005;-61
2023/07/18 06:06:07;;;;;;;;;;;;;;;-146.32;100.00;63746.28;4099187;29;20041;-63
2023/07/18 06:08:09;;;;;;;;;;;;;;;-146.32;100.00;63746.28;4100097;28;20013;-64
2023/07/18 06:10:11;;;;;;;;;;;;;;;-146.32;100.00;63746.28;4098716;28;20029;-61
2023/07/18 06:12:13;;;;;;;;;;;;;;;-146.32;100.00;63746.28;4098583;28;20421;-62
2023/07/18 06:14:15;;;;;;;;;;;;;;;-146.32;100.00;63746.28;4099830;28;20516;-64
2023/07/18 06:16:18;;;;;;;;;;;;;;;-146.32;100.00;63746.28;4099657;28;20949;-63
2023/07/18 06:18:19;;;;;;;;;;;;;;;-146.32;100.00;63746.28;4098530;28;20021;-63
2023/07/18 06:20:21;;;;;;;;;;;;;;;-146.32;100.00;63746.28;4098395;28;20017;-63
2023/07/18 06:22:23;;;;;;;;;;;;;;;-146.32;100.00;63746.28;4099812;28;20037;-63
2023/07/18 06:24:25;;;;;;;;;;;;;;;-146.32;100.00;63746.28;4098696;28;20821;-63
2023/07/18 06:26:27;;;;;;;;;;;;;;;-146.32;100.00;63746.28;4098568;28;19931;-61
2023/07/18 06:28:28;;;;;;;;;;;;;;;-146.32;100.00;63746.28;4098438;28;20017;-63
2023/07/18 06:30:30;;;;;;;;;;;;;;;-146.32;100.00;63746.28;4099331;28;19930;-63
2023/07/18 06:32:33;;;;;;;;;;;;;;;-146.32;100.00;63746.28;4098627;28;20016;-62
2023/07/18 06:34:40;;;;;;;;;;;;;;;-146.32;100.00;63746.28;4099128;28;20474;-62
2023/07/18 06:36:43;;;;;;;;;;;;;;;-146.32;100.00;63746.28;4114002;28;20018;-63
2023/07/18 06:38:44;;;;;;;;;;;;;;;-146.32;100.00;63746.28;4099549;28;20030;-63
2023/07/18 06:40:46;;;;;;;;;;;;;;;-146.32;100.00;63746.28;4097076;28;19959;-63
2023/07/18 06:42:48;;;;;;;;;;;;;;;-146.32;100.00;63746.28;4098502;28;20017;-63
2023/07/18 06:44:49;;;;;;;;;;;;;;;-146.32;100.00;63746.28;4099226;28;20021;-63
2023/07/18 06:46:51;;;;;;;;;;;;;;;-146.32;100.00;63746.28;4097887;28;19985;-63
2023/07/18 06:48:53;;;;;;;;;;;;;;;-146.32;100.00;63746.28;4098015;28;20100;-63
2023/07/18 06:50:59;;;;;;;;;;;;;;;-146.32;100.00;63746.28;4099124;28;20349;-63
2023/07/18 06:53:01;;;;;;;;;;;;;;;-146.32;100.00;63746.28;4097969;28;20381;-63
2023/07/18 06:55:03;;;;;;;;;;;;;;;-146.32;100.00;63746.28;4099157;28;20021;-63
2023/07/18 06:57:06;;;;;;;;;;;;;;;-146.32;100.00;63746.28;4098885;28;20010;-62
2023/07/18 06:59:07;;;;;;;;;;;;;;;-146.32;100.00;63746.28;4099173;28;20011;-63
2023/07/18 07:01:10;;;;;;;;;;;;;;;-146.32;100.00;63746.28;4099491;28;20026;-61
2023/07/18 07:03:12;;;;;;;;;;;;;;;-146.32;100.00;63746.28;4098394;28;20052;-62
2023/07/18 07:05:15;;;;;;;;;;;;;;;-146.32;100.00;63746.28;4098109;28;20001;-63
2023/07/18 07:07:17;;;;;;;;;;;;;;;-146.32;100.00;63746.28;4113784;28;20017;-63
2023/07/18 07:09:19;;;;;;;;;;;;;;;-146.32;100.00;63746.28;4098516;28;20447;-62
2023/07/18 07:11:22;;;;;;;;;;;;;;;-146.32;100.00;63746.28;4098464;28;20437;-62
2023/07/18 07:13:24;;;;;;;;;;;;;;;-146.32;100.00;63746.28;4097439;28;20018;-63
2023/07/18 07:15:26;;;;;;;;;;;;;;;-146.32;100.00;63746.28;4097938;28;20018;-61
2023/07/18 07:17:28;;;;;;;;;;;;;;;-146.32;100.00;63746.28;4097802;28;20431;-63
2023/07/18 07:19:30;;;;;;;;;;;;;;;-146.32;100.00;63746.28;4098118;28;20033;-61
2023/07/18 07:21:33;;;;;;;;;;;;;;;-146.32;100.00;63746.28;4097090;28;20013;-63
2023/07/18 07:23:36;;;;;;;;;;;;;;;-146.32;100.00;63746.28;4103976;28;20364;-64
2023/07/18 07:25:38;;;;;;;;;;;;;;;-146.32;100.00;63746.28;4098057;28;20010;-63
2023/07/18 07:27:40;;;;;;;;;;;;;;;-146.32;100.00;63746.28;4098303;28;20013;-64
2023/07/18 07:29:41;;;;;;;;;;;;;;;-146.32;100.00;63746.28;4097429;28;19966;-62
2023/07/18 07:31:43;;;;;;;;;;;;;;;-146.32;100.00;63746.28;4098218;28;19922;-63
2023/07/18 07:33:45;;;;;;;;;;;;;;;-146.32;100.00;63746.28;4098175;28;20053;-62
2023/07/18 07:35:47;;;;;;;;;;;;;;;-146.32;100.00;63746.28;4098742;28;20005;-62
2023/07/18 07:37:51;;;;;;;;;;;;;;;-146.32;100.00;63746.28;4096493;28;20009;-61
2023/07/18 07:39:53;;;;;;;;;;;;;;;-146.32;100.00;63746.28;4097297;28;20013;-64
2023/07/18 07:41:55;;;;;;;;;;;;;;;-146.32;100.00;63746.28;4097576;28;20488;-63
2023/07/18 07:43:57;;;;;;;;;;;;;;;-146.32;100.00;63746.28;4097472;28;20041;-64
2023/07/18 07:45:59;;;;;;;;;;;;;;;-146.32;100.00;63746.28;4097790;28;20017;-63
2023/07/18 07:48:01;;;;;;;;;;;;;;;-146.32;100.00;63746.28;4096488;28;20012;-62
2023/07/18 07:50:04;;;;;;;;;;;;;;;-146.32;100.00;63746.28;4098664;28;20009;-63
2023/07/18 07:52:07;;;;;;;;;;;;;;;-146.32;100.00;63746.28;4097365;28;20025;-61
2023/07/18 07:54:10;;;;;;;;;;;;;;;-146.32;100.00;63746.28;4097192;28;20009;-63
2023/07/18 07:56:12;;;;;;;;;;;;;;;-146.32;100.00;63746.28;4097755;28;20618;-64
2023/07/18 07:58:13;;;;;;;;;;;;;;;-146.32;100.00;63746.28;4096973;28;20022;-63
2023/07/18 08:00:16;;;;;;;;;;;;;;;-146.32;100.00;63746.28;4095689;28;20009;-63
2023/07/18 08:02:19;;;;;;;;;;;;;;;-146.32;100.00;63746.28;4096718;28;20453;-63
2023/07/18 08:04:21;;;;;;;;;;;;;;;-146.32;100.00;63746.28;4097486;28;20452;-63
2023/07/18 08:06:23;;;;;;;;;;;;;;;-146.32;100.00;63746.28;4097260;28;20359;-61
2023/07/18 08:08:25;;;;;;;;;;;;;;;-146.32;100.00;63746.28;4096385;28;20444;-63
2023/07/18 08:10:28;;;;;;;;;;;;;;;-146.32;100.00;63746.28;4097168;28;20095;-62
2023/07/18 08:12:30;;;;;;;;;;;;;;;-146.32;100.00;63746.28;4096746;28;20016;-64
2023/07/18 08:14:33;;;;;;;;;;;;;;;-146.32;100.00;63746.28;4097703;28;20020;-63
2023/07/18 08:16:35;;;;;;;;;;;;;;;-146.32;100.00;63746.28;4096545;28;20456;-63
2023/07/18 08:18:37;;;;;;;;;;;;;;;-146.32;100.00;63746.28;4096204;28;20461;-63
2023/07/18 08:20:39;;;;;;;;;;;;;;;-146.32;100.00;63746.28;4098261;28;20028;-63
2023/07/18 08:22:41;;;;;;;;;;;;;;;-146.32;100.00;63746.28;4097227;28;20449;-63
2023/07/18 08:24:43;;;;;;;;;;;;;;;-146.32;100.00;63746.28;4096678;28;20030;-63
2023/07/18 08:26:47;;;;;;;;;;;;;;;-146.32;100.00;63746.28;4097097;28;20025;-62
2023/07/18 08:28:49;;;;;;;;;;;;;;;-146.32;100.00;63746.28;4096510;28;20613;-64
2023/07/18 08:30:51;;;;;;;;;;;;;;;-146.32;100.00;63746.28;4097277;28;20064;-62
2023/07/18 08:32:53;;;;;;;;;;;;;;;-146.32;100.00;63746.28;4095981;28;20009;-62
2023/07/18 08:34:55;;;;;;;;;;;;;;;-146.32;100.00;63746.28;4096975;28;20029;-63
2023/07/18 08:36:57;;;;;;;;;;;;;;;-146.32;100.00;63746.28;4098187;28;20219;-63
2023/07/18 08:38:58;;;;;;;;;;;;;;;-146.32;100.00;63746.28;4096806;28;20338;-63
2023/07/18 08:41:00;;;;;;;;;;;;;;;-146.32;100.00;63746.28;4112280;28;20452;-63
2023/07/18 08:43:03;;;;;;;;;;;;;;;-146.32;100.00;63746.28;4096853;28;20001;-64
2023/07/18 08:45:05;;;;;;;;;;;;;;;-146.32;100.00;63746.28;4097404;28;20001;-61
2023/07/18 08:47:08;;;;;;;;;;;;;;;-146.32;100.00;63746.28;4097650;29;20009;-63
2023/07/18 08:49:10;;;;;;;;;;;;;;;-146.32;100.00;63746.28;4096070;28;20345;-61
2023/07/18 08:51:13;;;;;;;;;;;;;;;-146.32;100.00;63746.28;4096984;28;20019;-63
2023/07/18 08:53:15;;;;;;;;;;;;;;;-146.32;100.00;63746.28;4096544;28;20356;-63
2023/07/18 08:55:20;;;;;;;;;;;;;;;-146.32;100.00;63746.28;4096968;28;20475;-64
2023/07/18 08:57:22;;;;;;;;;;;;;;;-146.32;100.00;63746.28;4096792;28;20028;-63
2023/07/18 08:59:25;;;;;;;;;;;;;;;-146.32;100.00;63746.28;4096970;28;19977;-64
2023/07/18 09:01:27;;;;;;;;;;;;;;;-146.32;100.00;63746.28;4096802;28;20358;-63
2023/07/18 09:03:32;;;;;;;;;;;;;;;-146.32;100.00;63746.28;4111130;28;20009;-63
2023/07/18 09:05:35;;;;;;;;;;;;;;;-146.32;100.00;63746.28;4096962;28;20025;-63
2023/07/18 09:07:37;;;;;;;;;;;;;;;-146.32;100.00;63746.28;4096678;28;20022;-62
2023/07/18 09:09:40;;;;;;;;;;;;;;;-146.32;100.00;63746.28;4096900;28;19965;-63
2023/07/18 09:11:52;;;;;;;;;;;;;;;-146.32;100.00;63746.28;4097970;28;20009;-64
2023/07/18 09:13:53;;;;;;;;;;;;;;;-146.32;100.00;63746.28;4099678;28;20464;-63
2023/07/18 09:15:57;;;;;;;;;;;;;;;-146.32;100.00;63746.28;4100600;28;19973;-63
2023/07/18 09:17:59;;;;;;;;;;;;;;;-146.32;100.00;63746.28;4099995;28;20456;-64
2023/07/18 09:20:02;;;;;;;;;;;;;;;-146.32;100.00;63746.28;4099843;28;20033;-63
2023/07/18 09:22:05;;;;;;;;;;;;;;;-146.32;100.00;63746.28;4099958;28;20038;-64
2023/07/18 09:24:07;;;;;;;;;;;;;;;-146.32;100.00;63746.28;4099650;28;20045;-64
2023/07/18 09:26:10;;;;;;;;;;;;;;;-146.32;100.00;63746.28;4098692;28;20008;-63
2023/07/18 09:28:11;;;;;;;;;;;;;;;-146.32;100.00;63746.28;4100027;28;20034;-62
2023/07/18 09:30:15;;;;;;;;;;;;;;;-146.32;100.00;63746.28;4099850;28;20024;-61
2023/07/18 09:32:19;;;;;;;;;;;;;;;-146.32;100.00;63746.28;4099061;28;20013;-63
2023/07/18 09:34:20;;;;;;;;;;;;;;;-146.32;100.00;63746.28;4099109;28;20012;-64
2023/07/18 09:36:22;;;;;;;;;;;;;;;-146.32;100.00;63746.28;4100011;28;19922;-62
2023/07/18 09:38:24;;;;;;;;;;;;;;;-146.32;100.00;63746.28;4098618;28;20039;-63
2023/07/18 09:40:26;;;;;;;;;;;;;;;-146.32;100.00;63746.28;4098876;28;20361;-63
2023/07/18 09:42:28;;;;;;;;;;;;;;;-146.32;100.00;63746.28;4099108;28;19964;-61
2023/07/18 09:44:30;;;;;;;;;;;;;;;-146.32;100.00;63746.28;4100444;28;20018;-63
2023/07/18 09:46:31;;;;;;;;;;;;;;;-146.32;100.00;63746.28;4099325;28;20016;-63
2023/07/18 09:48:35;;;;;;;;;;;;;;;-146.32;100.00;63746.28;4099083;28;20004;-64
2023/07/18 09:50:36;;;;;;;;;;;;;;;-146.32;100.00;63746.28;4090148;28;20064;-64
2023/07/18 09:52:40;;;;;;;;;;;;;;;-146.32;100.00;63746.28;4099362;28;19927;-64
2023/07/18 09:54:42;;;;;;;;;;;;;;;-146.32;100.00;63746.28;4099670;28;20367;-63
2023/07/18 09:56:45;;;;;;;;;;;;;;;-146.32;100.00;63746.28;4100571;28;20014;-64
2023/07/18 09:58:47;;;;;;;;;;;;;;;-146.32;100.00;63746.28;4098286;28;20021;-62
2023/07/18 10:00:50;;;;;;;;;;;;;;;-146.32;100.00;63746.28;4098515;28;20018;-64
2023/07/18 10:02:52;;;;;;;;;;;;;;;-146.32;100.00;63746.28;4098664;28;20379;-64
2023/07/18 10:04:56;;;;;;;;;;;;;;;-146.32;100.00;63746.28;4099464;28;20012;-64
2023/07/18 10:06:58;;;;;;;;;;;;;;;-146.32;100.00;63746.28;4099117;28;20012;-63
2023/07/18 10:09:00;;;;;;;;;;;;;;;-146.32;100.00;63746.28;4098703;28;20009;-63
2023/07/18 10:11:04;;;;;;;;;;;;;;;-146.32;100.00;63746.28;4098998;28;20016;-62
2023/07/18 10:13:06;;;;;;;;;;;;;;;-146.32;100.00;63746.28;4098682;28;20056;-63